createdAt,value
2022-08-02T00:05:16.959Z,102001.97
2022-08-02T00:15:18.432Z,101993.59
2022-08-02T00:25:19.990Z,101990.03
2022-08-02T00:35:21.455Z,101984.44
2022-08-02T00:46:01.913Z,102009.09
2022-08-02T00:55:45.504Z,102017.81
2022-08-02T01:06:02.168Z,102020.16
2022-08-02T01:16:16.018Z,102014.16
2022-08-02T01:26:39.180Z,102013.81
2022-08-02T01:36:44.229Z,102020.16
2022-08-02T01:46:46.673Z,102022.25
2022-08-02T01:56:50.701Z,102037.41
2022-08-02T02:06:52.872Z,102030.84
2022-08-02T02:16:56.913Z,102023.47
2022-08-02T02:27:00.712Z,102004.81
2022-08-02T02:37:04.835Z,102005.50
2022-08-02T02:47:09.042Z,101997.66
2022-08-02T02:57:10.951Z,101994.97
2022-08-02T03:07:12.763Z,101993.50
2022-08-02T03:17:14.195Z,101980.09
2022-08-02T03:27:15.668Z,101975.41
2022-08-02T03:37:17.647Z,101967.00
2022-08-02T03:47:19.868Z,101964.63
2022-08-02T03:57:21.746Z,101974.63
2022-08-02T04:08:33.919Z,101986.63
2022-08-02T04:17:50.486Z,101992.16
2022-08-02T04:28:17.454Z,101998.69
2022-08-02T04:38:15.476Z,101995.00
2022-08-02T04:48:17.188Z,101991.44
2022-08-02T04:58:39.591Z,101994.28
2022-08-02T05:08:39.985Z,101993.72
2022-08-02T05:18:41.443Z,101981.50
2022-08-02T05:28:43.725Z,101987.59
2022-08-02T05:38:49.656Z,101981.91
2022-08-02T05:48:51.604Z,101975.16
2022-08-02T05:59:01.158Z,101977.63
2022-08-02T06:09:08.683Z,101972.56
2022-08-02T06:19:12.323Z,101990.56
2022-08-02T06:29:14.679Z,101982.78
2022-08-02T06:39:39.267Z,101971.09
2022-08-02T06:49:52.486Z,101929.47
2022-08-02T06:59:56.492Z,101936.97
2022-08-02T07:10:01.402Z,101954.97
2022-08-02T07:20:04.253Z,101949.50
2022-08-02T07:30:06.593Z,101957.63
2022-08-02T07:40:13.549Z,101952.72
2022-08-02T07:50:18.426Z,101929.41
2022-08-02T08:00:19.850Z,101900.91
2022-08-02T08:10:21.549Z,101892.78
2022-08-02T08:20:23.062Z,101896.13
2022-08-02T08:30:24.654Z,101879.25
2022-08-02T08:40:26.239Z,101858.94
2022-08-02T08:50:30.886Z,101870.25
2022-08-02T09:00:35.120Z,101864.69
2022-08-02T09:10:41.825Z,101854.91
2022-08-02T09:21:01.663Z,101839.63
2022-08-02T09:31:11.820Z,101847.34
2022-08-02T09:41:21.645Z,101852.94
2022-08-02T09:51:25.765Z,101838.03
2022-08-02T10:01:37.353Z,101840.72
2022-08-02T10:11:39.990Z,101835.38
2022-08-02T10:21:55.799Z,101832.88
2022-08-02T10:32:11.223Z,101828.88
2022-08-02T10:42:33.371Z,101808.63
2022-08-02T10:52:34.827Z,101793.38
2022-08-02T11:02:40.466Z,101780.06
2022-08-02T11:13:06.664Z,101775.72
2022-08-02T11:23:45.004Z,101776.31
2022-08-02T11:33:50.165Z,101758.66
2022-08-02T11:43:55.449Z,101756.81
2022-08-02T11:53:56.858Z,101748.88
2022-08-02T12:03:58.478Z,101723.03
2022-08-02T12:14:00.855Z,101723.19
2022-08-02T12:24:02.306Z,101711.91
2022-08-02T12:34:11.909Z,101705.69
2022-08-02T12:44:17.112Z,101689.94
2022-08-02T12:54:31.144Z,101690.81
2022-08-02T13:04:33.532Z,101696.34
2022-08-02T13:14:42.018Z,101689.38
2022-08-02T13:24:55.858Z,101681.88
2022-08-02T13:34:58.897Z,101678.69
2022-08-02T13:45:00.365Z,101665.31
2022-08-02T13:55:14.469Z,101657.09
2022-08-02T14:05:16.033Z,101649.91
2022-08-02T14:15:18.776Z,101651.66
2022-08-02T14:25:20.432Z,101641.53
2022-08-02T14:35:21.851Z,101633.09
2022-08-02T14:45:23.268Z,101617.84
2022-08-02T14:55:24.667Z,101615.06
2022-08-02T15:05:26.133Z,101609.31
2022-08-02T15:15:27.584Z,101590.31
2022-08-02T15:25:29.001Z,101579.19
2022-08-02T15:35:30.578Z,101571.88
2022-08-02T15:45:32.024Z,101577.09
2022-08-02T15:55:40.067Z,101564.50
2022-08-02T16:05:55.194Z,101554.16
2022-08-02T16:15:57.201Z,101551.53
2022-08-02T16:25:58.659Z,101549.06
2022-08-02T16:36:00.267Z,101546.69
2022-08-02T16:46:01.821Z,101547.88
2022-08-02T16:56:03.760Z,101531.31
2022-08-02T17:06:05.219Z,101529.66
2022-08-02T17:16:21.026Z,101528.19
2022-08-02T17:26:28.476Z,101530.88
2022-08-02T17:36:31.457Z,101530.38
2022-08-02T17:46:32.906Z,101527.09
2022-08-02T17:56:34.601Z,101530.03
2022-08-02T18:06:36.178Z,101532.31
2022-08-02T18:16:38.768Z,101530.31
2022-08-02T18:26:43.516Z,101537.28
2022-08-02T18:36:47.459Z,101531.81
2022-08-02T18:46:49.278Z,101538.03
2022-08-02T18:56:50.902Z,101540.28
2022-08-02T19:06:52.380Z,101551.50
2022-08-02T19:16:53.852Z,101556.97
2022-08-02T19:26:55.301Z,101559.38
2022-08-02T19:36:56.746Z,101554.66
2022-08-02T19:46:58.807Z,101558.59
2022-08-02T19:57:00.235Z,101563.13
2022-08-02T20:07:01.639Z,101570.75
2022-08-02T20:17:04.895Z,101568.75
2022-08-02T20:27:07.077Z,101572.69
2022-08-02T20:38:00.929Z,101575.31
2022-08-02T20:47:39.429Z,101574.81
2022-08-02T20:57:48.958Z,101568.78
2022-08-02T21:08:02.074Z,101565.09
2022-08-02T21:18:05.872Z,101558.00
2022-08-02T21:38:36.841Z,101557.06
2022-08-02T21:48:38.312Z,101559.69
2022-08-02T21:58:39.779Z,101558.59
2022-08-02T22:08:41.268Z,101565.41
2022-08-02T22:18:47.438Z,101566.50
2022-08-02T22:28:59.517Z,101568.13
2022-08-02T22:39:02.843Z,101571.88
2022-08-02T22:49:04.359Z,101575.88
2022-08-02T22:59:02.780Z,101558.56
2022-08-02T23:09:17.241Z,101570.75
2022-08-02T23:19:18.641Z,101560.34
2022-08-02T23:29:20.062Z,101563.69
2022-08-02T23:39:21.975Z,101552.41
2022-08-02T23:49:24.074Z,101556.69
2022-08-02T23:59:25.626Z,101555.94
